Time;durP1;ratioP1;P1;durP2;ratioP2;P2;SDS_P1;SDS_P2;PMS_P1;PMS_P2;Temp;Humidity;BMP_temperature;BMP_pressure;BME280_temperature;BME280_humidity;BME280_pressure;Samples;Min_cycle;Max_cycle;Signal;HPM_P1;HPM_P2
2022/01/23 00:00:15;;;;;;;23.85;8.93;;;;;;;;;;5032384;27;99971;-74
2022/01/23 00:02:43;;;;;;;22.95;9.15;;;;;;;;;;5016970;28;100132;-75
2022/01/23 00:05:10;;;;;;;26.48;9.85;;;;;;;;;;5013722;28;102343;-75
2022/01/23 00:07:39;;;;;;;26.70;9.10;;;;;;;;;;5030081;28;103012;-74
2022/01/23 00:10:06;;;;;;;25.02;8.75;;;;;;;;;;5030613;28;100356;-75
2022/01/23 00:12:40;;;;;;;26.35;10.00;;;;;;;;;;5015688;28;100101;-74
2022/01/23 00:17:53;;;;;;;27.77;11.02;;;;;;;;;;4996617;28;100626;-75
2022/01/23 00:20:20;;;;;;;22.88;10.50;;;;;;;;;;5010201;28;100176;-75
2022/01/23 00:22:51;;;;;;;26.42;10.45;;;;;;;;;;5016438;28;100077;-75
2022/01/23 00:30:50;;;;;;;26.77;9.98;;;;;;;;;;5016840;28;100100;-74
2022/01/23 00:33:17;;;;;;;20.35;9.02;;;;;;;;;;5014039;28;100137;-75
2022/01/23 00:35:45;;;;;;;24.67;10.07;;;;;;;;;;5030051;28;101331;-76
2022/01/23 00:38:12;;;;;;;27.33;10.95;;;;;;;;;;5030455;28;100167;-73
2022/01/23 00:40:40;;;;;;;19.67;8.48;;;;;;;;;;5031839;28;100099;-75
2022/01/23 00:43:14;;;;;;;25.58;9.65;;;;;;;;;;5014104;28;100052;-74
2022/01/23 00:45:44;;;;;;;31.52;11.50;;;;;;;;;;5029363;28;100306;-74
2022/01/23 00:48:13;;;;;;;28.73;9.43;;;;;;;;;;5013802;28;100671;-74
2022/01/23 00:50:41;;;;;;;29.13;9.23;;;;;;;;;;5031460;27;100041;-75
2022/01/23 00:53:10;;;;;;;21.90;8.27;;;;;;;;;;5033840;28;100109;-74
2022/01/23 00:55:38;;;;;;;26.45;10.55;;;;;;;;;;5033436;28;100383;-75
2022/01/23 00:58:05;;;;;;;28.83;10.10;;;;;;;;;;5013701;28;100578;-75
2022/01/23 01:00:32;;;;;;;28.17;12.23;;;;;;;;;;5003009;28;102240;-74
2022/01/23 01:02:59;;;;;;;23.75;9.32;;;;;;;;;;5034353;28;100136;-74
2022/01/23 01:05:26;;;;;;;35.63;13.05;;;;;;;;;;5000109;28;102852;-73
2022/01/23 01:07:58;;;;;;;38.13;13.43;;;;;;;;;;5033431;28;100808;-74
2022/01/23 01:10:33;;;;;;;26.00;12.30;;;;;;;;;;5032962;28;100216;-76
2022/01/23 01:13:02;;;;;;;23.27;9.85;;;;;;;;;;5018303;28;100046;-74
2022/01/23 01:31:35;;;;;;;29.50;11.73;;;;;;;;;;5035016;27;99986;-74
2022/01/23 01:34:17;;;;;;;26.98;11.63;;;;;;;;;;5033491;28;100132;-73
2022/01/23 01:36:49;;;;;;;27.45;10.05;;;;;;;;;;5027649;28;102451;-74
2022/01/23 01:39:22;;;;;;;33.03;12.30;;;;;;;;;;4997794;28;101221;-74
2022/01/23 01:41:49;;;;;;;33.15;11.85;;;;;;;;;;5012864;28;100244;-74
2022/01/23 01:44:16;;;;;;;38.95;14.30;;;;;;;;;;5011053;28;100152;-75
2022/01/23 01:47:01;;;;;;;38.95;13.38;;;;;;;;;;5018183;28;100624;-75
2022/01/23 01:49:35;;;;;;;36.20;14.32;;;;;;;;;;5000343;28;103222;-75
2022/01/23 01:52:05;;;;;;;32.58;13.05;;;;;;;;;;5016487;28;100200;-75
2022/01/23 01:54:33;;;;;;;34.67;15.25;;;;;;;;;;5015768;28;100643;-75
2022/01/23 01:57:09;;;;;;;28.02;10.70;;;;;;;;;;5028341;28;100199;-74
2022/01/23 02:00:11;;;;;;;27.55;12.07;;;;;;;;;;5019179;28;100851;-74
2022/01/23 02:08:32;;;;;;;31.55;14.18;;;;;;;;;;5030071;28;100002;-75
2022/01/23 02:11:12;;;;;;;29.92;12.88;;;;;;;;;;4984175;28;103710;-74
2022/01/23 02:55:16;;;;;;;32.70;13.65;;;;;;;;;;4999851;28;100580;-73
2022/01/23 03:00:15;;;;;;;29.70;11.93;;;;;;;;;;5014310;28;100089;-74
2022/01/23 03:03:14;;;;;;;41.13;14.77;;;;;;;;;;5025792;28;100181;-74
2022/01/23 03:09:10;;;;;;;34.28;13.77;;;;;;;;;;5030923;28;100432;-74
2022/01/23 03:14:14;;;;;;;36.30;14.60;;;;;;;;;;4997945;27;100218;-74
2022/01/23 03:30:25;;;;;;;30.40;12.85;;;;;;;;;;5049901;27;100235;-74
2022/01/23 03:32:53;;;;;;;37.30;14.85;;;;;;;;;;5019220;27;100269;-77
2022/01/23 03:35:22;;;;;;;34.92;13.88;;;;;;;;;;5030648;28;100742;-74
2022/01/23 03:37:49;;;;;;;41.40;15.75;;;;;;;;;;5031562;28;100576;-74
2022/01/23 03:40:16;;;;;;;44.17;18.45;;;;;;;;;;5032768;27;100116;-74
2022/01/23 03:42:46;;;;;;;47.53;18.75;;;;;;;;;;5012741;28;100162;-75
2022/01/23 03:50:46;;;;;;;44.40;17.15;;;;;;;;;;5011828;28;100195;-75
2022/01/23 03:53:21;;;;;;;42.25;17.75;;;;;;;;;;5015582;28;100212;-75
2022/01/23 03:55:50;;;;;;;40.75;18.42;;;;;;;;;;4997696;28;100907;-74
2022/01/23 03:58:20;;;;;;;44.33;18.27;;;;;;;;;;5013830;28;103685;-75
2022/01/23 04:00:47;;;;;;;39.00;18.33;;;;;;;;;;5014907;28;100180;-75
2022/01/23 04:03:18;;;;;;;38.17;15.45;;;;;;;;;;5031516;28;100150;-75
2022/01/23 04:05:47;;;;;;;40.20;15.80;;;;;;;;;;5014464;28;100300;-76
2022/01/23 04:08:16;;;;;;;39.67;15.25;;;;;;;;;;5015023;28;100520;-75
2022/01/23 04:10:43;;;;;;;49.17;18.35;;;;;;;;;;5031408;28;99878;-75
2022/01/23 04:13:22;;;;;;;38.45;15.40;;;;;;;;;;5014760;28;100303;-76
2022/01/23 04:16:04;;;;;;;36.22;15.82;;;;;;;;;;5030710;28;100905;-75
2022/01/23 04:45:56;;;;;;;29.88;13.93;;;;;;;;;;5033519;28;100320;-74
2022/01/23 04:59:45;;;;;;;34.88;16.27;;;;;;;;;;4997430;28;103509;-75
2022/01/23 05:05:01;;;;;;;39.92;15.13;;;;;;;;;;5034106;28;102696;-74
2022/01/23 05:07:47;;;;;;;49.47;19.95;;;;;;;;;;5016792;28;100191;-75
2022/01/23 05:10:14;;;;;;;49.17;19.65;;;;;;;;;;5013635;28;100244;-75
2022/01/23 05:12:49;;;;;;;50.45;19.50;;;;;;;;;;5011015;28;100578;-75
2022/01/23 05:15:16;;;;;;;41.80;16.90;;;;;;;;;;5026298;28;100105;-75
2022/01/23 05:17:43;;;;;;;47.78;20.88;;;;;;;;;;5016463;28;100207;-75
2022/01/23 05:20:13;;;;;;;46.85;19.33;;;;;;;;;;5033153;28;100234;-75
2022/01/23 05:22:46;;;;;;;44.35;17.35;;;;;;;;;;5034476;27;100780;-75
2022/01/23 05:25:19;;;;;;;43.25;17.70;;;;;;;;;;5023312;28;100045;-75
2022/01/23 05:27:46;;;;;;;38.70;16.57;;;;;;;;;;5013587;28;100169;-75
2022/01/23 05:30:14;;;;;;;49.22;19.40;;;;;;;;;;4996619;28;100234;-75
2022/01/23 05:32:42;;;;;;;53.65;22.35;;;;;;;;;;5013319;28;100618;-76
2022/01/23 05:35:11;;;;;;;47.60;19.10;;;;;;;;;;5012696;28;100145;-77
2022/01/23 05:37:39;;;;;;;41.38;19.55;;;;;;;;;;4996852;28;100117;-76
2022/01/23 05:40:11;;;;;;;43.78;18.27;;;;;;;;;;5031060;28;100330;-76
2022/01/23 05:42:41;;;;;;;40.28;17.75;;;;;;;;;;4999788;28;101173;-75
2022/01/23 05:45:08;;;;;;;40.65;16.48;;;;;;;;;;5032401;28;100177;-76
2022/01/23 05:47:53;;;;;;;28.55;12.90;;;;;;;;;;5029396;27;100109;-75
2022/01/23 05:50:58;;;;;;;45.42;18.45;;;;;;;;;;5031467;28;100644;-75
2022/01/23 05:53:25;;;;;;;35.95;15.88;;;;;;;;;;5032182;28;100485;-75
2022/01/23 05:56:12;;;;;;;35.60;15.25;;;;;;;;;;5032106;28;100140;-74
2022/01/23 05:58:54;;;;;;;34.15;16.02;;;;;;;;;;5031547;28;100296;-76
2022/01/23 06:01:24;;;;;;;40.08;14.50;;;;;;;;;;4999279;28;100328;-75
2022/01/23 06:03:53;;;;;;;29.35;11.98;;;;;;;;;;5016146;28;100887;-76
2022/01/23 06:06:32;;;;;;;23.35;10.52;;;;;;;;;;5017796;28;100182;-75
2022/01/23 06:08:59;;;;;;;28.33;11.68;;;;;;;;;;5016200;28;100120;-76
2022/01/23 06:11:26;;;;;;;28.50;10.93;;;;;;;;;;5033346;28;100602;-75
2022/01/23 06:13:53;;;;;;;34.03;11.52;;;;;;;;;;5032240;28;100623;-75
2022/01/23 06:16:20;;;;;;;28.15;12.75;;;;;;;;;;5015947;28;100216;-75
2022/01/23 06:19:11;;;;;;;28.95;10.80;;;;;;;;;;5034210;28;100042;-75
2022/01/23 06:22:04;;;;;;;28.25;12.25;;;;;;;;;;5039162;27;100287;-74
2022/01/23 06:24:59;;;;;;;30.45;12.05;;;;;;;;;;5032277;27;101158;-75
2022/01/23 06:27:29;;;;;;;31.05;11.43;;;;;;;;;;5032245;28;100194;-75
2022/01/23 06:29:57;;;;;;;34.60;13.70;;;;;;;;;;5032119;28;100133;-76
2022/01/23 06:32:24;;;;;;;23.30;9.88;;;;;;;;;;5031685;28;100712;-76
2022/01/23 06:34:51;;;;;;;37.38;13.07;;;;;;;;;;5031933;28;100572;-75
2022/01/23 06:37:18;;;;;;;34.78;12.48;;;;;;;;;;5015579;28;100151;-76
2022/01/23 06:39:45;;;;;;;55.97;20.35;;;;;;;;;;4999349;28;100158;-75
2022/01/23 06:42:16;;;;;;;90.03;32.88;;;;;;;;;;5032040;28;100453;-75
2022/01/23 06:45:02;;;;;;;47.88;19.20;;;;;;;;;;5017943;28;100590;-75
2022/01/23 06:47:29;;;;;;;39.42;16.10;;;;;;;;;;5031879;28;100050;-75
2022/01/23 06:49:56;;;;;;;39.05;14.82;;;;;;;;;;5031798;27;100079;-75
2022/01/23 06:52:24;;;;;;;25.38;11.10;;;;;;;;;;5012605;28;100390;-74
2022/01/23 06:54:55;;;;;;;33.90;14.77;;;;;;;;;;5015647;28;100563;-75
2022/01/23 06:57:22;;;;;;;33.00;12.45;;;;;;;;;;5014954;28;100046;-76
2022/01/23 06:59:52;;;;;;;27.55;11.45;;;;;;;;;;5015814;28;100248;-75
2022/01/23 07:02:44;;;;;;;35.97;14.10;;;;;;;;;;5032548;28;100304;-76
2022/01/23 07:05:36;;;;;;;27.67;10.98;;;;;;;;;;4988373;28;100858;-75
2022/01/23 07:08:14;;;;;;;37.85;15.30;;;;;;;;;;5016526;28;100045;-75
2022/01/23 07:11:00;;;;;;;31.85;12.93;;;;;;;;;;5033491;27;100005;-75
2022/01/23 07:13:55;;;;;;;42.00;16.33;;;;;;;;;;5031163;27;101919;-75
2022/01/23 07:16:49;;;;;;;53.45;20.80;;;;;;;;;;5018198;28;100731;-76
2022/01/23 07:19:23;;;;;;;62.92;21.55;;;;;;;;;;5031314;28;100091;-76
2022/01/23 07:22:00;;;;;;;67.18;22.67;;;;;;;;;;5015335;28;100509;-75
2022/01/23 07:24:28;;;;;;;52.00;19.08;;;;;;;;;;5014845;28;100193;-73
2022/01/23 07:26:55;;;;;;;67.40;21.75;;;;;;;;;;5031243;28;100871;-75
2022/01/23 07:29:22;;;;;;;83.20;28.00;;;;;;;;;;5030920;28;100537;-74
2022/01/23 07:31:59;;;;;;;59.85;21.85;;;;;;;;;;5031172;28;100086;-73
2022/01/23 07:34:27;;;;;;;54.40;19.83;;;;;;;;;;5015467;28;100823;-74
2022/01/23 07:36:54;;;;;;;55.95;19.35;;;;;;;;;;5031153;28;101135;-73
2022/01/23 07:39:38;;;;;;;48.83;20.25;;;;;;;;;;4999932;28;100417;-74
2022/01/23 07:42:11;;;;;;;48.13;18.17;;;;;;;;;;5015276;28;101037;-75
2022/01/23 07:44:57;;;;;;;64.90;23.50;;;;;;;;;;5029914;28;100226;-76
2022/01/23 07:47:46;;;;;;;59.03;19.08;;;;;;;;;;5031925;27;100537;-76
2022/01/23 07:50:31;;;;;;;54.53;19.75;;;;;;;;;;5017150;28;100177;-76
2022/01/23 07:53:18;;;;;;;64.57;19.90;;;;;;;;;;5030579;28;99990;-75
2022/01/23 07:55:51;;;;;;;66.75;21.02;;;;;;;;;;5030732;28;100318;-75
2022/01/23 07:58:44;;;;;;;47.15;17.33;;;;;;;;;;4990514;28;101722;-75
2022/01/23 08:01:27;;;;;;;40.42;14.20;;;;;;;;;;4984741;28;100112;-76
2022/01/23 08:04:14;;;;;;;38.85;15.30;;;;;;;;;;5012657;28;100245;-75
2022/01/23 08:06:44;;;;;;;39.50;15.95;;;;;;;;;;4995663;28;100769;-74
2022/01/23 08:09:49;;;;;;;35.45;14.45;;;;;;;;;;5029257;28;101046;-76
2022/01/23 08:12:17;;;;;;;36.25;14.63;;;;;;;;;;5025725;28;100668;-76
2022/01/23 08:14:44;;;;;;;38.75;15.35;;;;;;;;;;5022785;28;100105;-76
2022/01/23 08:17:11;;;;;;;44.67;15.82;;;;;;;;;;4997423;28;102683;-75
2022/01/23 08:19:39;;;;;;;35.15;13.90;;;;;;;;;;4993618;28;103286;-75
2022/01/23 08:22:06;;;;;;;46.10;15.93;;;;;;;;;;5030517;28;100026;-76
2022/01/23 08:24:35;;;;;;;56.03;19.02;;;;;;;;;;5031734;27;100176;-76
2022/01/23 08:27:04;;;;;;;68.07;21.23;;;;;;;;;;5031070;28;100230;-76
2022/01/23 08:29:31;;;;;;;73.07;22.98;;;;;;;;;;5013757;28;100519;-75
2022/01/23 08:31:58;;;;;;;72.57;20.88;;;;;;;;;;5027546;28;100221;-76
2022/01/23 08:34:27;;;;;;;68.70;21.00;;;;;;;;;;4981985;28;100215;-75
2022/01/23 08:36:55;;;;;;;68.05;22.90;;;;;;;;;;5010743;28;100295;-75
2022/01/23 08:39:24;;;;;;;41.08;15.80;;;;;;;;;;5010079;28;100717;-75
2022/01/23 08:41:51;;;;;;;41.22;15.82;;;;;;;;;;5013711;28;100119;-75
2022/01/23 08:44:23;;;;;;;39.97;14.50;;;;;;;;;;5027775;28;99852;-75
2022/01/23 08:46:50;;;;;;;48.10;18.25;;;;;;;;;;4995183;28;100321;-74
2022/01/23 08:49:18;;;;;;;32.47;13.07;;;;;;;;;;5017101;28;100554;-75
2022/01/23 08:51:46;;;;;;;31.17;12.48;;;;;;;;;;5010325;28;100031;-75
2022/01/23 08:54:13;;;;;;;25.80;10.90;;;;;;;;;;4977490;28;100182;-75
2022/01/23 08:56:40;;;;;;;28.77;13.52;;;;;;;;;;4979200;28;102934;-75
2022/01/23 08:59:07;;;;;;;28.02;12.48;;;;;;;;;;5010952;28;100686;-76
2022/01/23 09:01:34;;;;;;;26.60;11.20;;;;;;;;;;5029636;28;100212;-75
2022/01/23 09:04:02;;;;;;;31.92;13.13;;;;;;;;;;5005750;28;100118;-76
2022/01/23 09:06:29;;;;;;;34.80;13.35;;;;;;;;;;5003230;28;100192;-76
2022/01/23 09:08:58;;;;;;;32.70;13.93;;;;;;;;;;5016211;28;101993;-75
2022/01/23 09:16:50;;;;;;;21.38;10.20;;;;;;;;;;5023395;28;100213;-75
2022/01/23 09:19:18;;;;;;;23.65;9.73;;;;;;;;;;5033239;28;100715;-75
2022/01/23 09:21:44;;;;;;;24.35;10.57;;;;;;;;;;5027852;28;100056;-75
2022/01/23 09:24:11;;;;;;;29.83;11.70;;;;;;;;;;5034514;28;99953;-75
2022/01/23 09:26:38;;;;;;;27.48;11.32;;;;;;;;;;5008757;28;100308;-76
2022/01/23 09:29:17;;;;;;;19.95;9.27;;;;;;;;;;5013346;28;100577;-75
2022/01/23 09:31:48;;;;;;;22.55;9.85;;;;;;;;;;5031382;28;100089;-76
2022/01/23 09:34:21;;;;;;;24.92;9.52;;;;;;;;;;5030171;28;101151;-75
2022/01/23 09:36:48;;;;;;;22.33;9.40;;;;;;;;;;5028161;28;100222;-75
2022/01/23 10:00:24;;;;;;;24.30;9.00;;;;;;;;;;5041224;27;1416602;-75
2022/01/23 10:03:03;;;;;;;30.40;11.07;;;;;;;;;;5070829;27;100251;-78
2022/01/23 10:05:30;;;;;;;23.80;10.15;;;;;;;;;;5050664;27;100187;-74
2022/01/23 10:07:57;;;;;;;30.25;10.77;;;;;;;;;;5015474;27;100545;-75
2022/01/23 10:10:28;;;;;;;22.13;8.80;;;;;;;;;;5020552;27;100199;-75
2022/01/23 10:12:56;;;;;;;19.48;9.35;;;;;;;;;;5065074;27;101263;-75
2022/01/23 10:15:28;;;;;;;22.17;10.23;;;;;;;;;;5041213;27;102116;-75
2022/01/23 10:17:55;;;;;;;22.98;9.40;;;;;;;;;;5058528;27;102550;-74
2022/01/23 10:20:22;;;;;;;23.33;8.63;;;;;;;;;;5047838;27;100187;-75
2022/01/23 10:22:51;;;;;;;30.75;10.68;;;;;;;;;;5043493;27;100209;-76
2022/01/23 10:25:19;;;;;;;26.17;11.25;;;;;;;;;;5022074;27;100215;-75
2022/01/23 10:28:07;;;;;;;21.67;10.25;;;;;;;;;;5017484;27;100566;-76
2022/01/23 10:30:40;;;;;;;26.50;11.38;;;;;;;;;;5069646;27;100221;-74
2022/01/23 10:33:17;;;;;;;18.87;9.20;;;;;;;;;;5035771;27;100112;-75
2022/01/23 10:36:11;;;;;;;26.80;9.90;;;;;;;;;;5051369;27;101539;-75
2022/01/23 10:38:41;;;;;;;24.60;9.95;;;;;;;;;;5006476;27;102446;-75
2022/01/23 10:47:32;;;;;;;26.33;10.48;;;;;;;;;;5053829;27;100518;-76
2022/01/23 10:50:05;;;;;;;21.70;9.55;;;;;;;;;;5068965;27;100653;-75
2022/01/23 10:52:43;;;;;;;21.63;9.35;;;;;;;;;;5051927;27;100204;-75
2022/01/23 10:55:11;;;;;;;25.77;11.68;;;;;;;;;;5051069;27;100213;-74
2022/01/23 10:57:40;;;;;;;20.70;9.57;;;;;;;;;;5048512;27;100454;-75
2022/01/23 11:00:09;;;;;;;22.65;9.63;;;;;;;;;;5050564;27;100712;-75
2022/01/23 11:02:41;;;;;;;24.15;9.30;;;;;;;;;;5017297;27;100420;-75
2022/01/23 11:05:11;;;;;;;27.60;10.65;;;;;;;;;;5043844;27;100223;-75
2022/01/23 11:07:40;;;;;;;24.27;10.32;;;;;;;;;;5028030;27;100224;-74
2022/01/23 11:10:15;;;;;;;20.30;9.85;;;;;;;;;;5044166;27;100576;-74
2022/01/23 11:18:09;;;;;;;23.80;9.50;;;;;;;;;;5050957;27;100226;-75
2022/01/23 11:20:40;;;;;;;31.83;11.63;;;;;;;;;;5018955;27;103126;-75
2022/01/23 11:23:13;;;;;;;28.95;11.85;;;;;;;;;;5007675;27;101290;-75
2022/01/23 11:25:57;;;;;;;29.85;12.38;;;;;;;;;;5040902;27;100068;-75
2022/01/23 11:28:37;;;;;;;27.03;12.03;;;;;;;;;;5020965;27;100189;-76
2022/01/23 11:31:10;;;;;;;18.58;8.82;;;;;;;;;;5036187;27;101191;-76
2022/01/23 11:33:37;;;;;;;21.20;9.50;;;;;;;;;;5057790;27;100194;-76
2022/01/23 11:36:04;;;;;;;20.85;8.52;;;;;;;;;;5020961;27;100746;-75
2022/01/23 11:38:31;;;;;;;17.52;8.20;;;;;;;;;;5053311;27;100256;-76
2022/01/23 11:55:32;;;;;;;18.77;7.38;;;;;;;;;;4998112;27;101437;-75
2022/01/23 11:57:59;;;;;;;20.23;8.57;;;;;;;;;;5037740;27;100174;-76
2022/01/23 12:00:45;;;;;;;24.58;8.30;;;;;;;;;;5021001;27;100304;-75
2022/01/23 12:03:19;;;;;;;22.35;9.05;;;;;;;;;;5035181;27;100692;-75
2022/01/23 12:05:48;;;;;;;23.83;9.02;;;;;;;;;;5038316;27;100030;-75
2022/01/23 12:08:22;;;;;;;28.02;10.13;;;;;;;;;;5021359;27;100127;-75
2022/01/23 12:11:35;;;;;;;24.10;10.15;;;;;;;;;;5033585;27;101597;-75
2022/01/23 12:17:03;;;;;;;26.98;10.10;;;;;;;;;;5036514;27;100888;-74
2022/01/23 12:19:31;;;;;;;29.30;10.77;;;;;;;;;;5037185;27;100098;-75
2022/01/23 12:22:19;;;;;;;30.92;11.73;;;;;;;;;;5017141;27;102699;-76
2022/01/23 12:24:49;;;;;;;27.02;9.93;;;;;;;;;;5034314;27;101122;-74
2022/01/23 12:27:18;;;;;;;36.15;12.35;;;;;;;;;;5037478;27;100156;-74
2022/01/23 12:29:45;;;;;;;31.15;12.02;;;;;;;;;;5035918;27;100475;-74
2022/01/23 12:32:17;;;;;;;35.95;12.95;;;;;;;;;;5002102;27;100245;-75
2022/01/23 12:34:51;;;;;;;35.58;14.15;;;;;;;;;;5052970;27;101898;-75
2022/01/23 12:37:20;;;;;;;43.75;16.17;;;;;;;;;;5053915;27;100523;-75
2022/01/23 12:40:22;;;;;;;42.40;15.35;;;;;;;;;;5054367;27;100120;-75
2022/01/23 12:43:09;;;;;;;37.97;14.18;;;;;;;;;;5034961;27;100682;-74
2022/01/23 12:45:55;;;;;;;38.08;14.45;;;;;;;;;;5018465;27;103448;-75
2022/01/23 12:48:25;;;;;;;42.40;15.23;;;;;;;;;;5034023;27;100372;-75
2022/01/23 12:51:03;;;;;;;36.53;13.60;;;;;;;;;;5052923;27;100195;-75
2022/01/23 12:53:42;;;;;;;50.42;17.63;;;;;;;;;;5053650;27;100295;-75
2022/01/23 12:56:11;;;;;;;37.28;13.05;;;;;;;;;;5053676;27;100664;-75
2022/01/23 12:58:38;;;;;;;30.10;12.63;;;;;;;;;;5035631;27;100224;-74
2022/01/23 13:01:07;;;;;;;34.42;14.80;;;;;;;;;;5054120;27;100210;-74
2022/01/23 13:03:36;;;;;;;45.22;18.30;;;;;;;;;;5035687;27;100186;-74
2022/01/23 13:06:07;;;;;;;43.13;16.05;;;;;;;;;;5026817;27;100577;-75
2022/01/23 13:08:44;;;;;;;38.13;15.93;;;;;;;;;;4999310;27;100216;-75
2022/01/23 13:13:59;;;;;;;39.10;15.43;;;;;;;;;;5052013;27;100248;-73
2022/01/23 13:16:35;;;;;;;46.67;16.67;;;;;;;;;;5035208;27;100863;-75
2022/01/23 13:26:20;;;;;;;41.90;16.45;;;;;;;;;;5037065;27;100363;-74
2022/01/23 13:28:25;;;;;;;44.47;18.65;;;;;;;;;;5034711;27;100785;-75
2022/01/23 13:30:29;;;;;;;40.67;16.23;;;;;;;;;;5052605;27;100049;-75
2022/01/23 13:33:07;;;;;;;48.90;17.77;;;;;;;;;;5019134;27;100093;-75
2022/01/23 13:35:39;;;;;;;51.95;20.30;;;;;;;;;;5034937;27;100470;-75
2022/01/23 13:38:14;;;;;;;44.25;16.27;;;;;;;;;;5020784;27;100577;-75
2022/01/23 13:40:42;;;;;;;49.53;19.17;;;;;;;;;;5027938;27;100244;-74
2022/01/23 13:51:56;;;;;;;49.90;19.38;;;;;;;;;;5053268;27;100185;-75
2022/01/23 14:00:02;;;;;;;57.92;23.15;;;;;;;;;;5033848;27;103595;-74
2022/01/23 14:02:34;;;;;;;51.65;19.70;;;;;;;;;;5000362;27;100345;-73
2022/01/23 14:05:08;;;;;;;59.15;23.08;;;;;;;;;;5032721;27;100098;-75
2022/01/23 14:07:35;;;;;;;65.15;23.42;;;;;;;;;;5021996;27;100865;-76
2022/01/23 14:10:15;;;;;;;89.32;31.20;;;;;;;;;;5033345;27;100700;-75
2022/01/23 14:12:42;;;;;;;66.20;24.27;;;;;;;;;;5035290;27;100186;-75
2022/01/23 14:15:24;;;;;;;51.25;20.27;;;;;;;;;;5001605;27;100196;-75
2022/01/23 14:18:07;;;;;;;52.17;21.73;;;;;;;;;;5048648;27;100211;-75
2022/01/23 14:20:41;;;;;;;57.55;21.15;;;;;;;;;;5048573;27;100785;-75
2022/01/23 14:23:18;;;;;;;55.92;21.33;;;;;;;;;;5052346;27;100019;-76
2022/01/23 14:25:50;;;;;;;57.72;23.15;;;;;;;;;;4998194;27;103186;-74
2022/01/23 14:28:21;;;;;;;62.97;25.08;;;;;;;;;;5013944;27;102438;-76
2022/01/23 14:30:54;;;;;;;60.67;24.08;;;;;;;;;;5031750;27;101283;-75
2022/01/23 14:33:23;;;;;;;58.92;23.33;;;;;;;;;;5023811;27;100221;-75
2022/01/23 14:35:54;;;;;;;48.65;17.65;;;;;;;;;;5003528;27;100052;-74
2022/01/23 14:38:25;;;;;;;46.40;16.77;;;;;;;;;;5022373;27;100542;-74
2022/01/23 14:41:04;;;;;;;57.65;21.50;;;;;;;;;;5015208;27;100984;-73
2022/01/23 14:43:37;;;;;;;47.00;18.42;;;;;;;;;;5000359;27;101070;-73
2022/01/23 14:46:07;;;;;;;55.80;21.63;;;;;;;;;;5015666;27;100939;-74
2022/01/23 14:48:46;;;;;;;49.22;19.25;;;;;;;;;;4992069;27;100406;-76
2022/01/23 14:51:21;;;;;;;50.00;19.13;;;;;;;;;;5039923;27;101942;-75
2022/01/23 14:53:48;;;;;;;47.95;20.25;;;;;;;;;;5019425;27;100115;-74
2022/01/23 14:56:16;;;;;;;55.67;21.38;;;;;;;;;;5027066;27;100139;-74
2022/01/23 14:58:43;;;;;;;61.78;21.70;;;;;;;;;;4996001;28;102890;-74
2022/01/23 15:01:12;;;;;;;50.22;20.70;;;;;;;;;;5019116;28;100651;-74
2022/01/23 15:03:44;;;;;;;50.70;20.05;;;;;;;;;;4997184;28;100342;-74
2022/01/23 15:06:28;;;;;;;41.90;17.65;;;;;;;;;;5020442;28;100192;-75
2022/01/23 15:08:55;;;;;;;54.58;21.55;;;;;;;;;;5016325;28;100250;-75
2022/01/23 15:11:22;;;;;;;51.08;19.42;;;;;;;;;;5015026;28;102096;-73
2022/01/23 15:13:49;;;;;;;52.30;19.23;;;;;;;;;;5015313;27;100164;-73
2022/01/23 15:16:16;;;;;;;50.75;19.33;;;;;;;;;;5016672;28;100195;-74
2022/01/23 15:18:43;;;;;;;59.42;22.75;;;;;;;;;;5008430;28;102258;-74
2022/01/23 15:21:10;;;;;;;61.40;23.85;;;;;;;;;;5033269;28;100739;-74
2022/01/23 15:23:38;;;;;;;51.75;20.83;;;;;;;;;;5016675;28;100209;-75
2022/01/23 15:26:05;;;;;;;41.50;18.95;;;;;;;;;;5032494;28;100129;-74
2022/01/23 15:28:32;;;;;;;57.45;21.98;;;;;;;;;;5032019;28;101166;-75
2022/01/23 15:30:58;;;;;;;63.35;22.25;;;;;;;;;;5033987;28;100622;-74
2022/01/23 15:33:25;;;;;;;54.72;20.77;;;;;;;;;;5027468;28;100201;-75
2022/01/23 15:35:52;;;;;;;55.38;20.85;;;;;;;;;;5002026;28;101880;-78
2022/01/23 15:38:21;;;;;;;53.78;21.13;;;;;;;;;;5013165;28;100352;-75
2022/01/23 15:40:48;;;;;;;58.35;22.13;;;;;;;;;;4998303;28;104386;-74
2022/01/23 15:43:15;;;;;;;54.20;20.42;;;;;;;;;;5033553;28;100208;-74
2022/01/23 15:45:43;;;;;;;58.38;23.42;;;;;;;;;;4998338;28;100098;-74
2022/01/23 15:48:11;;;;;;;67.10;24.73;;;;;;;;;;5028315;28;100771;-74
2022/01/23 15:50:40;;;;;;;43.08;18.40;;;;;;;;;;5032232;27;100787;-74
2022/01/23 15:53:07;;;;;;;45.08;18.45;;;;;;;;;;4999453;28;102486;-74
2022/01/23 15:55:35;;;;;;;55.90;21.75;;;;;;;;;;5032311;27;100950;-75
2022/01/23 15:58:02;;;;;;;46.03;18.20;;;;;;;;;;5014618;27;103015;-75
2022/01/23 16:00:31;;;;;;;60.08;23.60;;;;;;;;;;5017991;27;103255;-73
2022/01/23 16:02:58;;;;;;;46.42;16.75;;;;;;;;;;5001345;27;100879;-74
2022/01/23 16:05:26;;;;;;;48.80;19.45;;;;;;;;;;5035813;27;100241;-74
2022/01/23 16:07:53;;;;;;;50.47;20.35;;;;;;;;;;5018263;27;101170;-73
2022/01/23 16:10:20;;;;;;;53.03;21.65;;;;;;;;;;5029852;27;100853;-74
2022/01/23 16:12:48;;;;;;;43.83;18.05;;;;;;;;;;5015444;27;100209;-74
2022/01/23 16:15:16;;;;;;;53.40;21.13;;;;;;;;;;4981948;27;100294;-76
2022/01/23 16:17:44;;;;;;;46.53;19.50;;;;;;;;;;5037061;27;100196;-75
2022/01/23 16:20:12;;;;;;;54.75;21.95;;;;;;;;;;5034323;27;100761;-74
2022/01/23 16:22:38;;;;;;;49.65;22.90;;;;;;;;;;5034566;27;100089;-74
2022/01/23 16:25:06;;;;;;;52.58;21.48;;;;;;;;;;5024500;28;102382;-74
2022/01/23 16:27:33;;;;;;;77.45;30.23;;;;;;;;;;5004884;28;103193;-74
2022/01/23 16:30:18;;;;;;;64.43;25.95;;;;;;;;;;4997775;28;100714;-73
2022/01/23 16:32:45;;;;;;;70.00;28.25;;;;;;;;;;4995995;28;100138;-75
2022/01/23 16:35:19;;;;;;;78.90;30.08;;;;;;;;;;5013642;28;100184;-74
2022/01/23 16:37:46;;;;;;;85.53;33.33;;;;;;;;;;5015520;28;100329;-74
2022/01/23 16:40:13;;;;;;;62.28;25.52;;;;;;;;;;4950952;28;101051;-75
2022/01/23 16:42:40;;;;;;;61.35;24.48;;;;;;;;;;4954620;28;100380;-74
2022/01/23 16:45:07;;;;;;;79.55;29.85;;;;;;;;;;4972554;28;100228;-74
2022/01/23 16:47:34;;;;;;;59.70;24.58;;;;;;;;;;4975253;28;100483;-73
2022/01/23 16:50:01;;;;;;;76.10;27.55;;;;;;;;;;4954500;28;100889;-74
2022/01/23 16:52:28;;;;;;;51.95;22.90;;;;;;;;;;4979862;28;101778;-74
2022/01/23 16:54:55;;;;;;;59.90;24.67;;;;;;;;;;4975985;28;100043;-74
2022/01/23 16:57:22;;;;;;;60.83;25.52;;;;;;;;;;4990354;28;100395;-74
2022/01/23 16:59:49;;;;;;;62.40;25.30;;;;;;;;;;4990071;28;101121;-74
2022/01/23 17:02:15;;;;;;;68.63;26.58;;;;;;;;;;4972228;28;100243;-74
2022/01/23 17:04:43;;;;;;;58.65;24.63;;;;;;;;;;4955310;28;100177;-74
2022/01/23 17:07:09;;;;;;;65.68;25.58;;;;;;;;;;4969950;28;100993;-74
2022/01/23 17:09:38;;;;;;;48.72;20.92;;;;;;;;;;4918789;28;101229;-74
2022/01/23 17:12:06;;;;;;;49.25;21.70;;;;;;;;;;5009580;28;100122;-76
2022/01/23 17:14:35;;;;;;;44.38;17.27;;;;;;;;;;5033393;28;100229;-74
2022/01/23 17:17:02;;;;;;;38.33;17.70;;;;;;;;;;4988402;28;102533;-74
2022/01/23 17:19:29;;;;;;;52.67;20.52;;;;;;;;;;5023297;28;100973;-74
2022/01/23 17:21:56;;;;;;;59.10;22.83;;;;;;;;;;5020023;28;100263;-75
2022/01/23 17:24:28;;;;;;;56.28;22.42;;;;;;;;;;5019695;28;100844;-75
2022/01/23 17:26:55;;;;;;;59.30;24.23;;;;;;;;;;5001652;28;100510;-74
2022/01/23 17:29:22;;;;;;;68.72;27.40;;;;;;;;;;5000886;28;100746;-75
2022/01/23 17:31:49;;;;;;;59.97;23.98;;;;;;;;;;4993216;28;103039;-75
2022/01/23 17:34:19;;;;;;;55.60;23.67;;;;;;;;;;5005531;28;100264;-74
2022/01/23 17:36:46;;;;;;;50.28;20.23;;;;;;;;;;4988591;28;103138;-75
2022/01/23 17:39:13;;;;;;;50.35;20.23;;;;;;;;;;5022661;28;100866;-74
2022/01/23 17:41:40;;;;;;;53.20;20.80;;;;;;;;;;5003162;28;100251;-75
2022/01/23 17:44:08;;;;;;;57.85;22.42;;;;;;;;;;5004773;28;101067;-75
2022/01/23 17:46:37;;;;;;;58.55;23.00;;;;;;;;;;5008277;28;100307;-73
2022/01/23 17:49:08;;;;;;;56.22;21.88;;;;;;;;;;5014949;28;100716;-74
2022/01/23 17:51:36;;;;;;;51.03;21.05;;;;;;;;;;5033358;28;100068;-74
2022/01/23 17:54:03;;;;;;;47.72;19.70;;;;;;;;;;4980254;28;101193;-74
2022/01/23 17:56:30;;;;;;;57.50;22.13;;;;;;;;;;5009608;28;100212;-74
2022/01/23 17:58:57;;;;;;;52.55;19.15;;;;;;;;;;5010694;28;102150;-75
2022/01/23 18:01:24;;;;;;;53.67;19.25;;;;;;;;;;5012898;28;100171;-74
2022/01/23 18:03:51;;;;;;;58.78;23.77;;;;;;;;;;5012858;28;100477;-74
2022/01/23 18:06:28;;;;;;;66.10;24.75;;;;;;;;;;5000210;28;100219;-74
2022/01/23 18:08:56;;;;;;;57.17;21.52;;;;;;;;;;5015658;28;101712;-75
2022/01/23 18:11:23;;;;;;;53.30;21.73;;;;;;;;;;4998457;28;100254;-74